Time;durP1;ratioP1;P1;durP2;ratioP2;P2;SDS_P1;SDS_P2;PMS_P1;PMS_P2;Temp;Humidity;BMP_temperature;BMP_pressure;BME280_temperature;BME280_humidity;BME280_pressure;Samples;Min_cycle;Max_cycle;Signal;HPM_P1;HPM_P2
2023/07/09 00:01:14;;;;;;;7.22;2.55;;;;;;;;;;5036439;28;20418;-76
2023/07/09 00:03:40;;;;;;;5.43;2.67;;;;;;;;;;5031417;28;20679;-76
2023/07/09 00:06:08;;;;;;;8.00;3.63;;;;;;;;;;5027325;28;20055;-75
2023/07/09 00:08:34;;;;;;;10.18;2.53;;;;;;;;;;5024972;28;20427;-75
2023/07/09 00:11:00;;;;;;;7.35;2.85;;;;;;;;;;5024036;28;20091;-76
2023/07/09 00:13:27;;;;;;;5.60;2.58;;;;;;;;;;5033186;28;20487;-75
2023/07/09 00:16:01;;;;;;;7.07;3.58;;;;;;;;;;5022360;28;20084;-76
2023/07/09 00:18:28;;;;;;;5.60;2.72;;;;;;;;;;5027667;28;20030;-75
2023/07/09 00:20:54;;;;;;;6.90;2.50;;;;;;;;;;5034169;28;20434;-75
2023/07/09 00:23:20;;;;;;;8.02;2.72;;;;;;;;;;5038443;28;20033;-75
2023/07/09 00:25:47;;;;;;;7.30;2.85;;;;;;;;;;5031493;28;20056;-76
2023/07/09 00:28:17;;;;;;;8.05;2.70;;;;;;;;;;5028626;28;20419;-75
2023/07/09 00:30:44;;;;;;;13.43;4.60;;;;;;;;;;5028835;28;20311;-76
2023/07/09 00:33:20;;;;;;;7.82;3.15;;;;;;;;;;5028004;28;20450;-77
2023/07/09 00:35:48;;;;;;;7.35;2.30;;;;;;;;;;5025989;28;20043;-75
2023/07/09 00:38:16;;;;;;;8.02;3.03;;;;;;;;;;5036361;28;20094;-75
2023/07/09 00:40:47;;;;;;;6.65;3.17;;;;;;;;;;5029802;28;20038;-75
2023/07/09 00:43:16;;;;;;;7.18;2.80;;;;;;;;;;5028290;28;20098;-76
2023/07/09 00:45:42;;;;;;;8.15;3.33;;;;;;;;;;5028457;28;20487;-76
2023/07/09 00:48:12;;;;;;;8.68;3.08;;;;;;;;;;5030885;28;20029;-76
2023/07/09 00:50:47;;;;;;;10.23;2.67;;;;;;;;;;5045665;28;20017;-75
2023/07/09 00:53:18;;;;;;;8.82;2.90;;;;;;;;;;5045103;28;20045;-75
2023/07/09 00:55:46;;;;;;;9.40;3.08;;;;;;;;;;5035675;28;20470;-75
2023/07/09 00:58:15;;;;;;;8.98;2.72;;;;;;;;;;5031295;28;20025;-75
2023/07/09 01:00:46;;;;;;;7.53;2.67;;;;;;;;;;5029926;28;20120;-75
2023/07/09 01:03:33;;;;;;;8.57;3.83;;;;;;;;;;5029625;28;20029;-76
2023/07/09 01:05:59;;;;;;;7.70;3.40;;;;;;;;;;5017608;28;20115;-75
2023/07/09 01:08:29;;;;;;;8.45;3.10;;;;;;;;;;5026795;28;20021;-75
2023/07/09 01:10:55;;;;;;;7.28;2.88;;;;;;;;;;5028149;28;20053;-75
2023/07/09 01:13:21;;;;;;;8.40;2.92;;;;;;;;;;5032125;28;20075;-75
2023/07/09 01:15:48;;;;;;;8.15;3.03;;;;;;;;;;5029785;28;20112;-75
2023/07/09 01:18:14;;;;;;;7.35;3.10;;;;;;;;;;5026233;28;20029;-75
2023/07/09 01:20:40;;;;;;;6.65;3.22;;;;;;;;;;5024207;28;20064;-75
2023/07/09 01:23:07;;;;;;;6.82;2.60;;;;;;;;;;5029177;28;20029;-74
2023/07/09 01:25:34;;;;;;;5.88;2.50;;;;;;;;;;5032270;28;20044;-74
2023/07/09 01:28:00;;;;;;;9.13;3.15;;;;;;;;;;5031672;28;20150;-75
2023/07/09 01:30:33;;;;;;;11.70;3.22;;;;;;;;;;5020662;28;20493;-77
2023/07/09 01:33:00;;;;;;;8.75;2.85;;;;;;;;;;5024149;28;20026;-75
2023/07/09 01:35:28;;;;;;;12.73;3.38;;;;;;;;;;5026489;28;20025;-77
2023/07/09 01:37:55;;;;;;;9.85;3.03;;;;;;;;;;5019253;28;20564;-77
2023/07/09 01:40:23;;;;;;;10.38;2.58;;;;;;;;;;5022298;28;20083;-75
2023/07/09 01:42:49;;;;;;;10.35;3.72;;;;;;;;;;5021678;28;20026;-77
2023/07/09 01:45:16;;;;;;;10.43;3.78;;;;;;;;;;5027179;28;20407;-76
2023/07/09 01:47:43;;;;;;;6.60;2.30;;;;;;;;;;5025249;28;20407;-76
2023/07/09 01:50:10;;;;;;;8.25;2.95;;;;;;;;;;5023499;28;20018;-76
2023/07/09 01:52:37;;;;;;;12.88;3.47;;;;;;;;;;5024714;28;20029;-74
2023/07/09 01:55:04;;;;;;;8.13;2.80;;;;;;;;;;5046795;28;20029;-75
2023/07/09 01:57:34;;;;;;;7.72;2.67;;;;;;;;;;5021666;28;20029;-75
2023/07/09 02:00:03;;;;;;;4.47;2.60;;;;;;;;;;5037593;28;20561;-75
2023/07/09 02:02:30;;;;;;;7.32;2.67;;;;;;;;;;5034921;28;20465;-75
2023/07/09 02:04:56;;;;;;;7.47;2.78;;;;;;;;;;5029200;28;20049;-75
2023/07/09 02:07:24;;;;;;;8.32;3.00;;;;;;;;;;5030183;28;20510;-74
2023/07/09 02:09:50;;;;;;;9.05;3.45;;;;;;;;;;5022151;28;20022;-75
2023/07/09 02:12:17;;;;;;;5.15;2.95;;;;;;;;;;5035305;28;20018;-75
2023/07/09 02:14:44;;;;;;;7.45;3.05;;;;;;;;;;5029735;28;20483;-75
2023/07/09 02:17:11;;;;;;;8.55;2.75;;;;;;;;;;5033465;28;20026;-76
2023/07/09 02:19:37;;;;;;;7.18;2.60;;;;;;;;;;5029660;28;20026;-75
2023/07/09 02:22:04;;;;;;;7.63;3.10;;;;;;;;;;5030943;28;20037;-74
2023/07/09 02:24:30;;;;;;;8.50;2.78;;;;;;;;;;5025607;28;20026;-75
2023/07/09 02:26:57;;;;;;;6.47;2.72;;;;;;;;;;5028973;28;20170;-75
2023/07/09 02:29:24;;;;;;;5.25;2.63;;;;;;;;;;5039021;28;20041;-75
2023/07/09 02:31:51;;;;;;;5.05;2.40;;;;;;;;;;5026790;28;20527;-75
2023/07/09 02:34:17;;;;;;;7.75;2.67;;;;;;;;;;5031771;28;20037;-76
2023/07/09 02:36:44;;;;;;;8.20;3.25;;;;;;;;;;5027798;28;20061;-75
2023/07/09 02:39:11;;;;;;;8.50;2.50;;;;;;;;;;5033576;28;20036;-76
2023/07/09 02:41:37;;;;;;;9.98;2.55;;;;;;;;;;5038897;28;20042;-76
2023/07/09 02:44:04;;;;;;;8.80;3.15;;;;;;;;;;5036440;28;20040;-75
2023/07/09 02:46:30;;;;;;;7.90;3.28;;;;;;;;;;5030993;28;20099;-76
2023/07/09 02:48:56;;;;;;;7.97;3.83;;;;;;;;;;5027683;28;20036;-76
2023/07/09 02:51:22;;;;;;;7.05;3.85;;;;;;;;;;5029141;28;20108;-75
2023/07/09 02:53:48;;;;;;;13.95;3.30;;;;;;;;;;5029235;28;20041;-75
2023/07/09 02:56:14;;;;;;;10.10;2.88;;;;;;;;;;5023472;28;20021;-76
2023/07/09 02:58:40;;;;;;;7.25;3.15;;;;;;;;;;5025888;28;20458;-75
2023/07/09 03:01:07;;;;;;;6.68;2.53;;;;;;;;;;5027646;28;20437;-74
2023/07/09 03:03:33;;;;;;;8.25;2.83;;;;;;;;;;5029191;28;20029;-76
2023/07/09 03:05:59;;;;;;;7.78;2.50;;;;;;;;;;5026902;28;20053;-75
2023/07/09 03:08:25;;;;;;;6.47;2.90;;;;;;;;;;5027460;28;20030;-76
2023/07/09 03:10:51;;;;;;;7.15;2.30;;;;;;;;;;5029210;28;20029;-75
2023/07/09 03:13:17;;;;;;;9.05;2.53;;;;;;;;;;5032785;28;20041;-75
2023/07/09 03:15:43;;;;;;;6.00;2.85;;;;;;;;;;5025812;28;20033;-75
2023/07/09 03:18:09;;;;;;;5.68;2.60;;;;;;;;;;5031905;28;20053;-75
2023/07/09 03:20:38;;;;;;;10.00;3.60;;;;;;;;;;5034478;28;20063;-75
2023/07/09 03:23:04;;;;;;;4.97;2.63;;;;;;;;;;5028672;28;20021;-76
2023/07/09 03:25:30;;;;;;;5.88;2.63;;;;;;;;;;5033833;28;20040;-75
2023/07/09 03:27:57;;;;;;;7.88;2.63;;;;;;;;;;5040600;28;20064;-75
2023/07/09 03:30:23;;;;;;;7.75;2.58;;;;;;;;;;5031015;28;20029;-75
2023/07/09 03:32:49;;;;;;;8.65;3.33;;;;;;;;;;5034213;28;20418;-74
2023/07/09 03:35:15;;;;;;;5.32;3.15;;;;;;;;;;5014483;28;20026;-75
2023/07/09 03:37:41;;;;;;;8.13;2.83;;;;;;;;;;5027397;28;20452;-75
2023/07/09 03:40:10;;;;;;;10.60;3.33;;;;;;;;;;5042704;28;20037;-74
2023/07/09 03:42:36;;;;;;;10.13;2.70;;;;;;;;;;5023801;28;20041;-75
2023/07/09 03:45:02;;;;;;;6.35;2.95;;;;;;;;;;5043681;28;20032;-75
2023/07/09 03:47:29;;;;;;;6.63;2.80;;;;;;;;;;5028527;28;20048;-75
2023/07/09 03:49:55;;;;;;;11.13;3.55;;;;;;;;;;5027857;28;20018;-75
2023/07/09 03:52:21;;;;;;;11.57;4.05;;;;;;;;;;5037310;28;20033;-75
2023/07/09 03:54:47;;;;;;;9.18;3.10;;;;;;;;;;5034640;28;20033;-75
2023/07/09 03:57:13;;;;;;;6.70;2.90;;;;;;;;;;5032853;28;20056;-75
2023/07/09 03:59:39;;;;;;;5.35;3.25;;;;;;;;;;5034962;28;20093;-76
2023/07/09 04:02:06;;;;;;;10.82;3.17;;;;;;;;;;5036087;28;20028;-75
2023/07/09 04:04:33;;;;;;;8.38;3.22;;;;;;;;;;5043911;28;20049;-76
2023/07/09 04:06:59;;;;;;;12.75;2.95;;;;;;;;;;5045961;28;20029;-76
2023/07/09 04:09:25;;;;;;;8.43;3.25;;;;;;;;;;5042313;28;20036;-76
2023/07/09 04:11:51;;;;;;;6.55;3.08;;;;;;;;;;5042480;28;20024;-75
2023/07/09 04:14:17;;;;;;;6.38;3.35;;;;;;;;;;5037774;28;20090;-75
2023/07/09 04:16:43;;;;;;;7.28;3.22;;;;;;;;;;5041958;28;20471;-76
2023/07/09 04:19:09;;;;;;;7.22;2.80;;;;;;;;;;5031091;28;20026;-75
2023/07/09 04:21:36;;;;;;;7.07;3.60;;;;;;;;;;5032740;28;20029;-75
2023/07/09 04:24:02;;;;;;;4.20;2.60;;;;;;;;;;5037824;28;20084;-76
2023/07/09 04:26:28;;;;;;;6.88;3.08;;;;;;;;;;5035753;28;20065;-75
2023/07/09 04:28:54;;;;;;;8.50;3.00;;;;;;;;;;5034081;28;20021;-76
2023/07/09 04:31:20;;;;;;;8.57;3.00;;;;;;;;;;5032793;28;20029;-75
2023/07/09 04:33:46;;;;;;;7.57;3.20;;;;;;;;;;5027093;28;20036;-75
2023/07/09 04:36:13;;;;;;;5.07;3.10;;;;;;;;;;5028198;28;20057;-75
2023/07/09 04:38:39;;;;;;;8.25;4.10;;;;;;;;;;5030707;28;20061;-75
2023/07/09 04:41:05;;;;;;;6.68;3.08;;;;;;;;;;5036101;28;20025;-74
2023/07/09 04:43:31;;;;;;;10.75;3.70;;;;;;;;;;5027297;28;20463;-75
2023/07/09 04:45:57;;;;;;;11.07;3.42;;;;;;;;;;5034081;28;20030;-75
2023/07/09 04:48:23;;;;;;;11.25;3.60;;;;;;;;;;5025287;28;20045;-76
2023/07/09 04:50:50;;;;;;;9.85;3.30;;;;;;;;;;5026531;28;20032;-75
2023/07/09 04:53:16;;;;;;;10.43;3.15;;;;;;;;;;5029907;28;20025;-75
2023/07/09 04:55:42;;;;;;;6.45;3.30;;;;;;;;;;5020246;28;20061;-75
2023/07/09 04:58:08;;;;;;;8.15;3.70;;;;;;;;;;5029114;28;20443;-75
2023/07/09 05:00:35;;;;;;;12.20;3.38;;;;;;;;;;5021531;28;20030;-75
2023/07/09 05:03:01;;;;;;;5.93;3.17;;;;;;;;;;5024407;28;20029;-75
2023/07/09 05:05:27;;;;;;;10.35;3.05;;;;;;;;;;5032221;28;20042;-74
2023/07/09 05:07:53;;;;;;;10.82;3.10;;;;;;;;;;5031778;28;20558;-74
2023/07/09 05:10:19;;;;;;;8.90;2.75;;;;;;;;;;5026270;28;20424;-75
2023/07/09 05:12:52;;;;;;;10.38;3.33;;;;;;;;;;5026128;28;20025;-75
2023/07/09 05:15:20;;;;;;;9.75;3.22;;;;;;;;;;5023634;28;20017;-75
2023/07/09 05:17:46;;;;;;;6.90;3.45;;;;;;;;;;5023600;28;20030;-75
2023/07/09 05:20:12;;;;;;;9.93;3.08;;;;;;;;;;5024800;28;20544;-76
2023/07/09 05:22:38;;;;;;;7.15;2.90;;;;;;;;;;5028879;28;20032;-76
2023/07/09 05:25:05;;;;;;;11.85;3.45;;;;;;;;;;5031590;28;20080;-75
2023/07/09 05:27:31;;;;;;;8.85;3.08;;;;;;;;;;5034365;28;20044;-75
2023/07/09 05:29:58;;;;;;;7.10;2.95;;;;;;;;;;5028126;28;20031;-75
2023/07/09 05:32:24;;;;;;;5.53;3.20;;;;;;;;;;5027458;28;20050;-74
2023/07/09 05:34:50;;;;;;;7.03;2.72;;;;;;;;;;5028762;28;20430;-77
2023/07/09 05:37:16;;;;;;;5.20;3.08;;;;;;;;;;5020628;28;20048;-75
2023/07/09 05:39:42;;;;;;;8.73;3.03;;;;;;;;;;5027831;28;20099;-74
2023/07/09 05:42:09;;;;;;;8.05;3.85;;;;;;;;;;5025160;28;20084;-75
2023/07/09 05:44:35;;;;;;;10.70;3.78;;;;;;;;;;5028751;28;20029;-75
2023/07/09 05:47:01;;;;;;;8.18;2.90;;;;;;;;;;5026792;28;20037;-75
2023/07/09 05:49:28;;;;;;;10.27;2.90;;;;;;;;;;5023922;28;20538;-75
2023/07/09 05:51:54;;;;;;;7.78;3.25;;;;;;;;;;5030727;28;20029;-74
2023/07/09 05:54:21;;;;;;;8.93;4.00;;;;;;;;;;5029524;28;20452;-74
2023/07/09 05:56:47;;;;;;;7.38;3.30;;;;;;;;;;5036114;28;20033;-76
2023/07/09 05:59:13;;;;;;;10.40;3.22;;;;;;;;;;5027183;28;20558;-76
2023/07/09 06:01:39;;;;;;;9.18;2.72;;;;;;;;;;5025790;28;20041;-74
2023/07/09 06:04:06;;;;;;;8.57;3.45;;;;;;;;;;5027064;28;20041;-75
2023/07/09 06:06:32;;;;;;;6.75;2.67;;;;;;;;;;5027865;28;20476;-75
2023/07/09 06:08:58;;;;;;;7.82;3.00;;;;;;;;;;5032732;28;20076;-75
2023/07/09 06:11:25;;;;;;;10.93;3.20;;;;;;;;;;5025791;28;20029;-74
2023/07/09 06:13:51;;;;;;;5.57;2.97;;;;;;;;;;5036435;28;20049;-76
2023/07/09 06:16:18;;;;;;;8.43;3.35;;;;;;;;;;5027068;28;20083;-75
2023/07/09 06:18:44;;;;;;;6.32;3.15;;;;;;;;;;5032172;28;20063;-75
2023/07/09 06:21:11;;;;;;;9.32;3.85;;;;;;;;;;5033194;28;20078;-75
2023/07/09 06:23:37;;;;;;;7.90;2.90;;;;;;;;;;5036902;28;20029;-74
2023/07/09 06:26:03;;;;;;;11.10;3.30;;;;;;;;;;5026982;28;20037;-75
2023/07/09 06:28:30;;;;;;;7.40;3.70;;;;;;;;;;5023381;28;20113;-76
2023/07/09 06:30:56;;;;;;;8.07;3.60;;;;;;;;;;5020826;28;20022;-76
2023/07/09 06:33:23;;;;;;;10.65;2.92;;;;;;;;;;5029781;28;20029;-77
2023/07/09 06:35:59;;;;;;;6.68;2.95;;;;;;;;;;5025290;28;20037;-76
2023/07/09 06:38:25;;;;;;;6.13;3.35;;;;;;;;;;5026285;28;20387;-76
2023/07/09 06:40:52;;;;;;;12.48;3.28;;;;;;;;;;5033356;28;20026;-76
2023/07/09 06:43:18;;;;;;;8.38;3.00;;;;;;;;;;5022338;28;20116;-76
2023/07/09 06:45:58;;;;;;;5.90;3.42;;;;;;;;;;5034133;28;20505;-75
2023/07/09 06:48:26;;;;;;;12.95;3.08;;;;;;;;;;5028899;28;20056;-76
2023/07/09 06:50:53;;;;;;;10.48;4.32;;;;;;;;;;5027506;28;20021;-76
2023/07/09 06:53:20;;;;;;;4.30;2.67;;;;;;;;;;5042896;28;20024;-76
2023/07/09 06:55:47;;;;;;;8.13;2.95;;;;;;;;;;5027934;28;20057;-76
2023/07/09 06:58:13;;;;;;;7.35;2.53;;;;;;;;;;5030578;28;20025;-75
2023/07/09 07:00:40;;;;;;;6.75;2.42;;;;;;;;;;5032925;28;20076;-75
2023/07/09 07:03:06;;;;;;;8.40;3.50;;;;;;;;;;5029998;28;20453;-75
2023/07/09 07:05:32;;;;;;;10.18;3.25;;;;;;;;;;5033607;28;20049;-75
2023/07/09 07:07:58;;;;;;;11.95;3.28;;;;;;;;;;5038248;28;20097;-76
2023/07/09 07:10:26;;;;;;;13.63;3.20;;;;;;;;;;5036665;28;20056;-75
2023/07/09 07:12:53;;;;;;;11.02;2.92;;;;;;;;;;5038019;28;20025;-75
2023/07/09 07:15:20;;;;;;;10.15;3.20;;;;;;;;;;5037243;28;20032;-75
2023/07/09 07:17:46;;;;;;;8.90;2.45;;;;;;;;;;5043977;28;20029;-76
2023/07/09 07:20:13;;;;;;;9.80;3.63;;;;;;;;;;5041280;28;20025;-75
2023/07/09 07:22:39;;;;;;;5.55;2.67;;;;;;;;;;5031512;28;20025;-76
2023/07/09 07:25:06;;;;;;;8.20;2.97;;;;;;;;;;5033653;28;20111;-76
2023/07/09 07:27:32;;;;;;;12.73;2.90;;;;;;;;;;5029122;28;20064;-76
2023/07/09 07:29:58;;;;;;;9.88;3.00;;;;;;;;;;5026143;28;20476;-76
2023/07/09 07:32:25;;;;;;;7.75;3.35;;;;;;;;;;5028631;28;20053;-75
2023/07/09 07:34:51;;;;;;;9.13;3.25;;;;;;;;;;5023444;28;20076;-76
2023/07/09 07:37:21;;;;;;;8.18;4.03;;;;;;;;;;5021985;28;20416;-76
2023/07/09 07:39:48;;;;;;;11.30;3.10;;;;;;;;;;5023629;28;20060;-76
2023/07/09 07:42:14;;;;;;;7.28;3.22;;;;;;;;;;5021013;28;20033;-76
2023/07/09 07:44:40;;;;;;;7.03;3.00;;;;;;;;;;5021960;28;20116;-76
2023/07/09 07:47:07;;;;;;;7.35;3.30;;;;;;;;;;5022101;28;21798;-77
2023/07/09 07:49:33;;;;;;;10.02;2.90;;;;;;;;;;5024571;28;20037;-76
2023/07/09 07:52:03;;;;;;;9.80;3.63;;;;;;;;;;5024826;28;20113;-76
2023/07/09 07:54:30;;;;;;;7.53;2.80;;;;;;;;;;5024443;28;20044;-75
2023/07/09 07:56:56;;;;;;;4.85;2.47;;;;;;;;;;5041379;28;20432;-76
2023/07/09 07:59:22;;;;;;;10.82;3.03;;;;;;;;;;5018362;28;20040;-77
2023/07/09 08:01:48;;;;;;;8.77;3.13;;;;;;;;;;5020386;28;20037;-75
2023/07/09 08:04:14;;;;;;;9.05;2.88;;;;;;;;;;5038207;28;20110;-77
2023/07/09 08:06:41;;;;;;;5.15;2.60;;;;;;;;;;5028138;28;20054;-76
2023/07/09 08:09:07;;;;;;;7.32;3.20;;;;;;;;;;5029459;28;20021;-75
2023/07/09 08:11:33;;;;;;;5.22;3.10;;;;;;;;;;5016946;28;20587;-76
2023/07/09 08:13:59;;;;;;;6.40;3.13;;;;;;;;;;5023608;28;20048;-76
2023/07/09 08:16:25;;;;;;;11.35;3.22;;;;;;;;;;5025838;28;20040;-75
2023/07/09 08:18:52;;;;;;;12.27;3.85;;;;;;;;;;5026700;28;20511;-75
2023/07/09 08:21:18;;;;;;;8.80;3.28;;;;;;;;;;5020486;28;20616;-75
2023/07/09 08:23:45;;;;;;;6.70;3.42;;;;;;;;;;5022192;28;20037;-76
2023/07/09 08:26:11;;;;;;;11.35;3.50;;;;;;;;;;5023923;28;20422;-76
2023/07/09 08:28:37;;;;;;;6.55;2.80;;;;;;;;;;5040428;28;20033;-76
2023/07/09 08:31:04;;;;;;;11.35;3.28;;;;;;;;;;5029479;28;20026;-76
2023/07/09 08:33:30;;;;;;;5.47;3.03;;;;;;;;;;5022788;28;20021;-76
2023/07/09 08:35:57;;;;;;;13.65;3.55;;;;;;;;;;5024220;28;20415;-75
2023/07/09 08:38:23;;;;;;;7.10;3.15;;;;;;;;;;5022983;28;20029;-77
2023/07/09 08:40:53;;;;;;;9.73;3.60;;;;;;;;;;5022515;28;20041;-76
2023/07/09 08:43:31;;;;;;;9.00;3.85;;;;;;;;;;5023853;28;20033;-76
2023/07/09 08:46:08;;;;;;;8.23;3.20;;;;;;;;;;5022947;28;20059;-75
2023/07/09 08:48:36;;;;;;;7.75;3.10;;;;;;;;;;5022140;28;20032;-76
2023/07/09 08:51:11;;;;;;;8.48;3.15;;;;;;;;;;5020824;28;20155;-76
2023/07/09 08:53:45;;;;;;;7.35;3.13;;;;;;;;;;5020698;28;20178;-75
2023/07/09 08:56:11;;;;;;;8.98;3.00;;;;;;;;;;5019787;28;20029;-76
2023/07/09 08:58:38;;;;;;;10.10;3.88;;;;;;;;;;5017787;28;20033;-76
2023/07/09 09:01:06;;;;;;;4.68;2.38;;;;;;;;;;5020580;28;20134;-76
2023/07/09 09:03:45;;;;;;;5.07;3.17;;;;;;;;;;5038498;28;20061;-75
2023/07/09 09:06:15;;;;;;;6.28;2.22;;;;;;;;;;5026828;28;20030;-76
2023/07/09 09:09:08;;;;;;;4.93;2.35;;;;;;;;;;5024894;28;20140;-74
2023/07/09 09:11:34;;;;;;;4.22;1.90;;;;;;;;;;5010659;28;20049;-74
2023/07/09 09:14:03;;;;;;;4.43;2.00;;;;;;;;;;5023709;28;20138;-75
2023/07/09 09:16:38;;;;;;;6.47;2.05;;;;;;;;;;5019374;28;20152;-74
2023/07/09 09:19:09;;;;;;;5.53;2.17;;;;;;;;;;5027000;28;20113;-74
2023/07/09 09:21:37;;;;;;;2.83;1.77;;;;;;;;;;5016430;28;20091;-74
2023/07/09 09:24:35;;;;;;;3.05;1.60;;;;;;;;;;5014711;28;20037;-74
2023/07/09 09:27:01;;;;;;;1.60;1.30;;;;;;;;;;4986097;28;20081;-75
2023/07/09 09:29:27;;;;;;;1.48;1.27;;;;;;;;;;5021120;28;20039;-73
2023/07/09 09:31:57;;;;;;;1.73;1.63;;;;;;;;;;5039417;28;20041;-74
2023/07/09 09:34:27;;;;;;;2.70;1.60;;;;;;;;;;5024915;28;20045;-73
2023/07/09 09:36:53;;;;;;;5.93;1.90;;;;;;;;;;5026263;28;20049;-74
2023/07/09 09:39:19;;;;;;;2.35;1.63;;;;;;;;;;5027431;28;20089;-74
2023/07/09 09:41:45;;;;;;;4.85;1.75;;;;;;;;;;5027403;28;20382;-74
2023/07/09 09:44:19;;;;;;;1.90;1.70;;;;;;;;;;5024466;28;20029;-74
2023/07/09 09:46:45;;;;;;;1.70;1.52;;;;;;;;;;5026153;28;20025;-74
2023/07/09 09:49:11;;;;;;;2.08;1.50;;;;;;;;;;5025207;28;20036;-74
2023/07/09 09:51:40;;;;;;;2.85;1.38;;;;;;;;;;5030239;28;20033;-75
2023/07/09 09:54:12;;;;;;;2.20;1.70;;;;;;;;;;5021350;28;20488;-74
2023/07/09 09:56:38;;;;;;;2.10;1.50;;;;;;;;;;5023014;28;20035;-74
2023/07/09 09:59:05;;;;;;;2.40;1.63;;;;;;;;;;5018972;28;20041;-74
2023/07/09 10:01:34;;;;;;;2.88;1.58;;;;;;;;;;5024934;28;20037;-73
2023/07/09 10:04:01;;;;;;;4.93;2.00;;;;;;;;;;5019824;28;21020;-73
2023/07/09 10:06:47;;;;;;;2.38;2.17;;;;;;;;;;5020669;28;20033;-74
2023/07/09 10:09:14;;;;;;;1.80;1.70;;;;;;;;;;5023907;28;20033;-74
2023/07/09 10:11:46;;;;;;;3.45;1.70;;;;;;;;;;5034853;28;20494;-73
2023/07/09 10:14:32;;;;;;;5.88;2.30;;;;;;;;;;5020590;28;20028;-74
2023/07/09 10:17:05;;;;;;;6.30;2.22;;;;;;;;;;5020820;28;20093;-74
2023/07/09 10:19:31;;;;;;;5.05;2.03;;;;;;;;;;5016709;28;20124;-75
2023/07/09 10:22:00;;;;;;;7.10;2.10;;;;;;;;;;5019783;28;20480;-75
2023/07/09 10:24:42;;;;;;;3.95;2.03;;;;;;;;;;5014494;28;20415;-74
2023/07/09 10:27:10;;;;;;;2.85;1.90;;;;;;;;;;5028002;28;20079;-75
2023/07/09 10:29:37;;;;;;;3.15;2.28;;;;;;;;;;5046654;28;20025;-73
2023/07/09 10:32:03;;;;;;;4.65;2.05;;;;;;;;;;5030172;28;20032;-74
2023/07/09 10:34:41;;;;;;;7.68;2.17;;;;;;;;;;5046522;28;20022;-74
2023/07/09 10:37:26;;;;;;;3.78;2.33;;;;;;;;;;5041673;28;20056;-74
2023/07/09 10:39:56;;;;;;;4.53;2.05;;;;;;;;;;5034564;28;20108;-74
2023/07/09 10:42:25;;;;;;;4.18;2.60;;;;;;;;;;5035915;28;20036;-74
2023/07/09 10:45:18;;;;;;;5.10;2.63;;;;;;;;;;5025470;28;20037;-75
2023/07/09 10:47:45;;;;;;;4.18;2.00;;;;;;;;;;5011676;28;20513;-75
2023/07/09 10:50:33;;;;;;;4.05;2.33;;;;;;;;;;5027713;28;20100;-75
2023/07/09 10:53:03;;;;;;;5.68;3.10;;;;;;;;;;5023299;28;20467;-75
2023/07/09 10:55:38;;;;;;;8.20;2.35;;;;;;;;;;5032832;28;20471;-73
2023/07/09 10:58:09;;;;;;;5.95;2.38;;;;;;;;;;5030573;28;20042;-73
2023/07/09 11:00:37;;;;;;;3.67;2.13;;;;;;;;;;5018989;28;20039;-74
2023/07/09 11:03:17;;;;;;;3.75;1.83;;;;;;;;;;5024235;28;20098;-73
2023/07/09 11:05:43;;;;;;;3.67;2.03;;;;;;;;;;5022317;28;20124;-76
2023/07/09 11:08:14;;;;;;;4.50;2.25;;;;;;;;;;5028172;28;20036;-75
2023/07/09 11:10:43;;;;;;;3.38;1.90;;;;;;;;;;5028557;28;20025;-75
2023/07/09 11:13:12;;;;;;;4.63;2.10;;;;;;;;;;5023526;28;20135;-76
2023/07/09 11:15:41;;;;;;;5.00;2.15;;;;;;;;;;5024396;28;20048;-76
2023/07/09 11:18:12;;;;;;;6.72;2.63;;;;;;;;;;5026888;28;20021;-75
2023/07/09 11:20:43;;;;;;;4.82;2.42;;;;;;;;;;5026488;28;20100;-75
2023/07/09 11:23:24;;;;;;;3.53;1.83;;;;;;;;;;5024220;28;20499;-76
2023/07/09 11:26:10;;;;;;;2.90;2.00;;;;;;;;;;5022861;28;20475;-76
2023/07/09 11:28:39;;;;;;;3.72;1.90;;;;;;;;;;5025579;28;20029;-76
2023/07/09 11:31:17;;;;;;;2.33;1.70;;;;;;;;;;5021234;28;20037;-76
2023/07/09 11:34:02;;;;;;;4.75;2.58;;;;;;;;;;5025677;28;20068;-77
2023/07/09 11:36:30;;;;;;;2.92;1.70;;;;;;;;;;5028308;28;20619;-77
2023/07/09 11:38:56;;;;;;;4.82;1.70;;;;;;;;;;5024860;28;20124;-77
2023/07/09 11:41:34;;;;;;;3.08;2.15;;;;;;;;;;5026298;28;20040;-76
2023/07/09 11:44:05;;;;;;;3.72;1.88;;;;;;;;;;5027790;28;20460;-76
2023/07/09 11:46:32;;;;;;;3.28;1.80;;;;;;;;;;5024035;28;20121;-76
2023/07/09 11:48:58;;;;;;;2.25;1.77;;;;;;;;;;5025119;28;20557;-76
2023/07/09 11:51:31;;;;;;;2.25;1.98;;;;;;;;;;5023882;28;20034;-75
2023/07/09 11:53:58;;;;;;;1.85;1.70;;;;;;;;;;5033483;28;20032;-76
2023/07/09 11:56:25;;;;;;;1.90;1.80;;;;;;;;;;5030036;28;20037;-76
2023/07/09 11:58:52;;;;;;;2.42;1.90;;;;;;;;;;5028678;28;20024;-76
2023/07/09 12:01:21;;;;;;;3.22;2.10;;;;;;;;;;5029678;28;20073;-76
2023/07/09 12:03:48;;;;;;;3.65;2.00;;;;;;;;;;5026164;28;20145;-76
2023/07/09 12:06:14;;;;;;;4.57;1.80;;;;;;;;;;5024222;28;20486;-77
2023/07/09 12:08:41;;;;;;;1.88;1.63;;;;;;;;;;5022590;28;20033;-77
2023/07/09 12:11:29;;;;;;;5.22;2.63;;;;;;;;;;5022446;28;20048;-77
2023/07/09 12:14:01;;;;;;;3.13;1.85;;;;;;;;;;5020123;28;20107;-76
2023/07/09 12:16:31;;;;;;;4.22;1.90;;;;;;;;;;5022286;28;20145;-78
2023/07/09 12:18:58;;;;;;;2.38;1.77;;;;;;;;;;5019261;28;20029;-77
2023/07/09 12:21:24;;;;;;;3.40;2.20;;;;;;;;;;5014280;28;20037;-76
2023/07/09 12:23:51;;;;;;;4.65;2.03;;;;;;;;;;5021424;28;20033;-76
2023/07/09 12:26:18;;;;;;;3.75;1.80;;;;;;;;;;5044247;28;20021;-77
2023/07/09 12:28:49;;;;;;;4.50;2.00;;;;;;;;;;5023718;28;20029;-77
2023/07/09 12:31:16;;;;;;;3.53;2.55;;;;;;;;;;5026707;28;20037;-77
2023/07/09 12:34:10;;;;;;;4.45;1.65;;;;;;;;;;5026699;28;20022;-76
2023/07/09 12:36:36;;;;;;;2.42;1.80;;;;;;;;;;5027232;28;20033;-76
2023/07/09 12:39:04;;;;;;;1.95;1.70;;;;;;;;;;5019761;28;20022;-77
2023/07/09 12:41:36;;;;;;;5.30;2.00;;;;;;;;;;5019935;28;20061;-77
2023/07/09 12:44:02;;;;;;;2.40;1.85;;;;;;;;;;5022184;28;20112;-78
2023/07/09 12:46:29;;;;;;;2.30;1.75;;;;;;;;;;5024324;28;20069;-76
2023/07/09 12:48:55;;;;;;;4.35;1.70;;;;;;;;;;5024837;28;20029;-77
2023/07/09 12:51:24;;;;;;;3.45;1.67;;;;;;;;;;5021244;28;20671;-76
2023/07/09 12:54:00;;;;;;;2.50;1.92;;;;;;;;;;5021005;28;20037;-76
2023/07/09 12:56:26;;;;;;;4.47;1.80;;;;;;;;;;5028150;28;20483;-76
2023/07/09 12:58:57;;;;;;;2.08;1.80;;;;;;;;;;5024588;28;20044;-79
2023/07/09 13:01:25;;;;;;;4.25;1.80;;;;;;;;;;5013677;28;20025;-76
2023/07/09 13:03:55;;;;;;;3.03;1.70;;;;;;;;;;5018457;28;20033;-77
2023/07/09 13:06:34;;;;;;;1.70;1.60;;;;;;;;;;5022835;28;20064;-76
2023/07/09 13:09:00;;;;;;;1.92;1.50;;;;;;;;;;5015749;28;20560;-76
2023/07/09 13:11:37;;;;;;;1.90;1.30;;;;;;;;;;5021133;28;20033;-77
2023/07/09 13:14:05;;;;;;;2.63;1.45;;;;;;;;;;5020372;28;20483;-76
2023/07/09 13:16:31;;;;;;;2.63;1.67;;;;;;;;;;5020122;28;20037;-77
2023/07/09 13:18:57;;;;;;;1.83;1.58;;;;;;;;;;5023728;28;20040;-77
2023/07/09 13:21:23;;;;;;;2.70;1.50;;;;;;;;;;5019477;28;20423;-77
2023/07/09 13:23:50;;;;;;;1.45;1.15;;;;;;;;;;5020186;28;20060;-76
2023/07/09 13:26:16;;;;;;;2.22;1.60;;;;;;;;;;5020907;28;20033;-77
2023/07/09 13:28:45;;;;;;;3.85;1.85;;;;;;;;;;5020150;28;20025;-76
2023/07/09 13:31:15;;;;;;;5.65;1.60;;;;;;;;;;5023075;28;20032;-76
2023/07/09 13:33:42;;;;;;;3.05;1.60;;;;;;;;;;5024144;28;20113;-76
2023/07/09 13:36:08;;;;;;;1.48;1.38;;;;;;;;;;5029463;28;20029;-77
2023/07/09 13:38:35;;;;;;;5.30;1.73;;;;;;;;;;5029799;28;20041;-76
2023/07/09 13:41:06;;;;;;;2.78;1.58;;;;;;;;;;5032757;28;20063;-76
2023/07/09 13:43:33;;;;;;;1.98;1.67;;;;;;;;;;5034522;28;20055;-76
2023/07/09 13:46:03;;;;;;;1.55;1.45;;;;;;;;;;5040383;28;20084;-76
2023/07/09 13:48:29;;;;;;;3.17;1.45;;;;;;;;;;5033440;28;20396;-77
2023/07/09 13:50:56;;;;;;;3.42;1.98;;;;;;;;;;5030241;28;20080;-76
2023/07/09 13:53:24;;;;;;;2.53;1.33;;;;;;;;;;5029873;28;20052;-75
2023/07/09 13:55:50;;;;;;;1.92;1.35;;;;;;;;;;5026217;28;20056;-76
2023/07/09 13:58:18;;;;;;;1.98;1.38;;;;;;;;;;5024284;28;20076;-77
2023/07/09 14:00:44;;;;;;;3.20;1.50;;;;;;;;;;5031202;28;20161;-75
2023/07/09 14:03:31;;;;;;;5.22;1.65;;;;;;;;;;5030229;28;20039;-76
2023/07/09 14:05:57;;;;;;;3.17;1.70;;;;;;;;;;5028585;28;20033;-77
2023/07/09 14:08:23;;;;;;;2.05;1.60;;;;;;;;;;5031986;28;20399;-76
2023/07/09 14:10:50;;;;;;;3.83;1.70;;;;;;;;;;5021404;28;20087;-76
2023/07/09 14:13:17;;;;;;;2.95;1.70;;;;;;;;;;5029614;28;20084;-76
2023/07/09 14:15:43;;;;;;;2.45;1.60;;;;;;;;;;5032363;28;20044;-76
2023/07/09 14:18:17;;;;;;;2.20;1.65;;;;;;;;;;5029201;28;20705;-76
2023/07/09 14:20:43;;;;;;;2.33;1.85;;;;;;;;;;5030906;28;21355;-75
2023/07/09 14:23:14;;;;;;;3.13;1.70;;;;;;;;;;5029190;28;20479;-75
2023/07/09 14:25:40;;;;;;;2.85;1.50;;;;;;;;;;5030257;28;20025;-76
2023/07/09 14:28:14;;;;;;;2.17;1.50;;;;;;;;;;5029708;28;20038;-76
2023/07/09 14:30:41;;;;;;;3.55;1.70;;;;;;;;;;5026808;28;20089;-76
2023/07/09 14:33:17;;;;;;;2.53;1.50;;;;;;;;;;5027139;28;20394;-76
2023/07/09 14:35:44;;;;;;;2.70;1.90;;;;;;;;;;5029448;28;20040;-76
2023/07/09 14:38:24;;;;;;;1.95;1.50;;;;;;;;;;5030631;28;20021;-76
2023/07/09 14:40:51;;;;;;;2.72;1.52;;;;;;;;;;5030076;28;20040;-76
2023/07/09 14:43:17;;;;;;;3.25;1.60;;;;;;;;;;5031048;28;20561;-76
2023/07/09 14:45:44;;;;;;;4.18;1.65;;;;;;;;;;5029436;28;20022;-76
2023/07/09 14:48:14;;;;;;;2.75;1.63;;;;;;;;;;5026131;28;20025;-76